Time;durP1;ratioP1;P1;durP2;ratioP2;P2;SDS_P1;SDS_P2;PMS_P1;PMS_P2;Temp;Humidity;BMP_temperature;BMP_pressure;BME280_temperature;BME280_humidity;BME280_pressure;Samples;Min_cycle;Max_cycle;Signal;HPM_P1;HPM_P2
2021/10/05 00:01:34;;;;;;;25.25;4.57;;;;;;;11.24;100.00;101168.66;5263003;24;20058;-84
2021/10/05 00:27:16;;;;;;;20.70;3.47;;;;;;;11.50;100.00;101188.75;5558849;24;20051;-81
2021/10/05 00:29:41;;;;;;;15.13;3.42;;;;;;;12.10;100.00;101289.81;4833540;29;20052;-81
2021/10/05 00:37:14;;;;;;;19.92;3.20;;;;;;;11.47;100.00;101186.44;4777675;30;20055;-84
2021/10/05 00:42:15;;;;;;;15.98;3.17;;;;;;;12.06;100.00;101266.13;5626165;24;20059;-81
2021/10/05 00:44:41;;;;;;;15.60;3.40;;;;;;;12.07;100.00;101260.53;4813537;29;20100;-84
2021/10/05 00:47:12;;;;;;;22.15;3.40;;;;;;;12.07;100.00;101273.19;4818391;29;20098;-83
2021/10/05 00:49:40;;;;;;;21.33;3.92;;;;;;;12.06;100.00;101279.63;4821895;29;20015;-84
2021/10/05 00:52:06;;;;;;;21.20;3.92;;;;;;;12.05;100.00;101288.72;4813653;29;20026;-83
2021/10/05 00:54:35;;;;;;;23.45;3.70;;;;;;;12.05;100.00;101283.31;4830119;29;20079;-83
2021/10/05 00:57:01;;;;;;;23.48;4.00;;;;;;;11.15;100.00;101147.44;5158553;24;20045;-82
2021/10/05 00:59:26;;;;;;;20.52;3.70;;;;;;;12.08;100.00;101288.31;4833122;29;20068;-83
2021/10/05 01:01:52;;;;;;;19.48;3.72;;;;;;;12.09;100.00;101290.84;4817743;29;20034;-82
2021/10/05 01:09:29;;;;;;;24.80;4.40;;;;;;;11.76;100.00;101236.63;5075749;24;20059;-84
2021/10/05 01:11:55;;;;;;;22.85;4.68;;;;;;;11.36;100.00;101150.09;4833268;29;20019;-82
2021/10/05 01:14:22;;;;;;;19.90;4.07;;;;;;;11.95;100.00;101230.59;4887169;24;20039;-81
2021/10/05 01:19:24;;;;;;;22.23;4.43;;;;;;;11.41;100.00;101139.56;5054983;24;20054;-83
2021/10/05 01:21:50;;;;;;;21.80;4.40;;;;;;;11.86;100.00;101206.66;4830735;29;20019;-82
2021/10/05 01:24:18;;;;;;;18.95;3.95;;;;;;;12.45;100.00;101292.50;4828610;29;20038;-84
2021/10/05 01:26:44;;;;;;;23.55;4.28;;;;;;;11.55;100.00;101148.56;4825207;29;20047;-83
2021/10/05 01:39:34;;;;;;;23.13;3.75;;;;;;;11.63;100.00;101145.72;5321509;24;20850;-82
2021/10/05 01:42:06;;;;;;;15.88;3.30;;;;;;;12.13;100.00;101226.53;4806600;29;20045;-82
2021/10/05 01:44:34;;;;;;;20.17;3.40;;;;;;;12.45;100.00;101287.94;4829743;29;20023;-83
2021/10/05 01:47:01;;;;;;;20.42;3.15;;;;;;;11.81;100.00;101184.81;4827078;29;20019;-83
2021/10/05 01:49:27;;;;;;;18.08;3.03;;;;;;;12.44;100.00;101297.06;4824416;29;20030;-84
2021/10/05 01:51:53;;;;;;;19.90;3.15;;;;;;;12.29;100.00;101263.16;4822853;29;20032;-83
2021/10/05 01:56:54;;;;;;;13.88;2.78;;;;;;;11.63;100.00;101171.84;5572431;24;20050;-82
2021/10/05 01:59:19;;;;;;;19.33;3.15;;;;;;;11.47;100.00;101154.09;4809791;29;20117;-84
2021/10/05 02:01:45;;;;;;;15.45;3.17;;;;;;;11.64;100.00;101179.72;4828780;29;20031;-83
2021/10/05 02:04:11;;;;;;;15.20;3.08;;;;;;;11.31;100.00;101130.16;4832242;29;20019;-83
2021/10/05 02:06:40;;;;;;;21.92;2.90;;;;;;;11.88;100.00;101218.06;4831752;29;20043;-84
2021/10/05 02:09:07;;;;;;;17.85;2.67;;;;;;;11.91;100.00;101220.38;4828057;29;20090;-84
2021/10/05 02:11:34;;;;;;;12.70;2.47;;;;;;;12.17;100.00;101260.16;4829827;29;20027;-83
2021/10/05 02:13:59;;;;;;;16.20;3.00;;;;;;;12.16;100.00;101250.41;4811536;29;20045;-84
2021/10/05 02:16:25;;;;;;;17.23;3.05;;;;;;;12.15;100.00;101263.06;4831531;29;20428;-84
2021/10/05 02:18:50;;;;;;;17.65;3.22;;;;;;;12.19;100.00;101277.81;4834009;29;20023;-83
2021/10/05 02:21:17;;;;;;;14.68;3.55;;;;;;;12.17;100.00;101271.78;4832574;29;20031;-82
2021/10/05 02:26:29;;;;;;;14.43;3.22;;;;;;;12.16;100.00;101269.31;4830124;29;20022;-83
2021/10/05 02:28:54;;;;;;;13.63;3.45;;;;;;;12.12;100.00;101258.06;4828420;29;20014;-83
2021/10/05 02:31:19;;;;;;;20.88;3.08;;;;;;;12.13;100.00;101262.44;4816496;29;20022;-83
2021/10/05 02:33:45;;;;;;;18.05;3.50;;;;;;;11.93;100.00;101235.31;4811597;29;20027;-84
2021/10/05 02:36:10;;;;;;;13.00;3.28;;;;;;;11.99;100.00;101252.59;4815717;29;20039;-83
2021/10/05 02:46:21;;;;;;;19.63;3.97;;;;;;;11.07;100.00;101145.72;5500986;24;20065;-82
2021/10/05 02:48:47;;;;;;;17.25;3.63;;;;;;;11.22;100.00;101178.78;4793833;29;20082;-84
2021/10/05 02:51:13;;;;;;;17.33;3.35;;;;;;;11.83;100.00;101269.03;4807532;29;20049;-82
2021/10/05 02:53:39;;;;;;;21.40;3.28;;;;;;;10.97;100.00;101140.66;4812242;29;20071;-84
2021/10/05 02:56:05;;;;;;;19.63;3.60;;;;;;;11.35;100.00;101212.25;4813292;29;20039;-83
2021/10/05 02:58:30;;;;;;;18.90;3.53;;;;;;;11.05;100.00;101161.22;4811411;29;20010;-83
2021/10/05 03:00:56;;;;;;;11.88;3.00;;;;;;;11.46;100.00;101225.22;4801337;29;20046;-83
2021/10/05 03:05:57;;;;;;;20.38;3.30;;;;;;;10.96;100.00;101148.91;4921083;24;20038;-83
2021/10/05 03:10:58;;;;;;;15.10;3.55;;;;;;;11.82;100.00;101273.59;4935645;24;20055;-83
2021/10/05 03:13:23;;;;;;;15.50;3.45;;;;;;;11.82;100.00;101272.75;4781249;29;20025;-82
2021/10/05 03:15:51;;;;;;;12.73;3.40;;;;;;;11.78;100.00;101269.59;4809307;29;20043;-82
2021/10/05 03:18:16;;;;;;;15.48;3.70;;;;;;;11.82;100.00;101275.44;4815891;29;20021;-83
2021/10/05 03:20:43;;;;;;;23.10;3.70;;;;;;;11.79;100.00;101270.44;4796896;29;20019;-83
2021/10/05 03:23:08;;;;;;;22.90;3.92;;;;;;;11.70;100.00;101267.06;4828528;29;20042;-82
2021/10/05 03:25:34;;;;;;;10.20;3.40;;;;;;;11.69;100.00;101274.34;4814753;29;20026;-83
2021/10/05 03:33:10;;;;;;;17.20;3.83;;;;;;;10.68;100.00;101130.84;5220970;24;20059;-82
2021/10/05 03:40:46;;;;;;;20.05;3.50;;;;;;;11.10;100.00;101179.50;5620703;24;20051;-83
2021/10/05 03:50:57;;;;;;;17.42;3.72;;;;;;;10.76;100.00;101146.88;5493373;24;20029;-81
2021/10/05 03:53:23;;;;;;;15.45;3.85;;;;;;;10.55;100.00;101118.09;4817317;29;20083;-83
2021/10/05 03:55:57;;;;;;;13.18;4.38;;;;;;;10.63;100.00;101129.75;4834932;29;20060;-82
2021/10/05 03:58:24;;;;;;;14.00;3.70;;;;;;;11.55;100.00;101277.91;4827356;29;20038;-83
2021/10/05 04:00:50;;;;;;;15.73;3.88;;;;;;;11.59;100.00;101264.88;4818566;29;20040;-82
2021/10/05 04:03:16;;;;;;;17.77;3.47;;;;;;;11.58;100.00;101264.06;4831520;29;20118;-83
2021/10/05 04:05:42;;;;;;;14.70;3.47;;;;;;;11.60;100.00;101262.00;4827916;29;20031;-82
2021/10/05 04:08:09;;;;;;;17.65;3.75;;;;;;;11.61;100.00;101269.06;4834129;29;20070;-82
2021/10/05 04:10:35;;;;;;;19.05;4.05;;;;;;;11.42;100.00;101223.91;4813207;29;20035;-82
2021/10/05 04:15:36;;;;;;;15.30;3.33;;;;;;;11.53;100.00;101247.66;5188692;24;20053;-83
2021/10/05 04:18:01;;;;;;;22.17;4.00;;;;;;;11.68;100.00;101271.81;4812411;29;20102;-83
2021/10/05 04:20:28;;;;;;;19.92;3.40;;;;;;;11.46;100.00;101231.44;5204317;24;20030;-74
2021/10/05 04:22:53;;;;;;;20.33;3.70;;;;;;;11.05;100.00;101164.75;4829027;29;20027;-82
2021/10/05 04:25:19;;;;;;;19.08;3.25;;;;;;;10.82;100.00;101127.25;4802759;29;20031;-83
2021/10/05 04:32:55;;;;;;;18.20;4.10;;;;;;;10.95;100.00;101158.03;5216420;24;20038;-84
2021/10/05 04:35:22;;;;;;;19.48;3.75;;;;;;;11.67;100.00;101279.06;4827066;29;20095;-82
2021/10/05 04:37:48;;;;;;;22.85;3.80;;;;;;;11.66;100.00;101269.31;4829241;29;20070;-81
2021/10/05 04:40:13;;;;;;;19.17;3.90;;;;;;;11.67;100.00;101273.69;4829380;29;20035;-81
2021/10/05 04:42:40;;;;;;;22.17;4.28;;;;;;;11.67;100.00;101272.84;4804132;29;20058;-81
2021/10/05 04:45:06;;;;;;;20.17;4.50;;;;;;;11.64;100.00;101275.94;4808054;29;20388;-81
2021/10/05 04:47:32;;;;;;;17.00;4.07;;;;;;;11.58;100.00;101274.84;4822918;29;20035;-80
2021/10/05 04:49:57;;;;;;;21.38;4.38;;;;;;;11.56;100.00;101268.00;4824921;29;20033;-82
2021/10/05 04:52:23;;;;;;;18.63;4.00;;;;;;;11.56;100.00;101262.59;4800584;29;20014;-81
2021/10/05 04:54:48;;;;;;;18.70;3.83;;;;;;;11.55;100.00;101266.31;4819229;29;20035;-80
2021/10/05 04:57:13;;;;;;;19.38;4.63;;;;;;;11.49;100.00;101274.16;4822628;29;20042;-82
2021/10/05 04:59:40;;;;;;;12.48;3.55;;;;;;;11.46;100.00;101279.94;4789901;29;20111;-81
2021/10/05 05:02:06;;;;;;;17.55;4.50;;;;;;;11.41;100.00;101282.38;4823795;29;20066;-80
2021/10/05 05:04:31;;;;;;;17.85;4.75;;;;;;;11.37;100.00;101282.94;4807115;29;20042;-83
2021/10/05 05:06:56;;;;;;;20.75;5.03;;;;;;;11.32;100.00;101280.00;4794796;29;20102;-80
2021/10/05 05:09:22;;;;;;;17.95;4.70;;;;;;;11.33;100.00;101287.06;4779311;29;20466;-80
2021/10/05 05:11:47;;;;;;;20.23;4.70;;;;;;;11.34;100.00;101284.16;4796547;29;20018;-81
2021/10/05 05:14:14;;;;;;;16.85;4.30;;;;;;;11.19;100.00;101273.47;4823543;29;20403;-80
2021/10/05 05:16:41;;;;;;;22.08;5.00;;;;;;;11.38;100.00;101295.38;4802851;29;20027;-80
2021/10/05 05:19:07;;;;;;;20.02;5.13;;;;;;;11.37;100.00;101288.34;4821427;29;20064;-81
2021/10/05 05:21:33;;;;;;;21.92;4.88;;;;;;;11.36;100.00;101284.81;4822143;29;20034;-80
2021/10/05 05:23:59;;;;;;;20.48;5.18;;;;;;;11.33;100.00;101279.81;4798303;29;20458;-80
2021/10/05 05:26:25;;;;;;;16.85;4.95;;;;;;;11.24;100.00;101280.94;4793710;29;20098;-80
2021/10/05 05:28:51;;;;;;;12.75;4.68;;;;;;;11.13;100.00;101259.94;4811892;29;20450;-80
2021/10/05 05:31:16;;;;;;;20.83;5.63;;;;;;;11.20;100.00;101285.06;4797360;29;20046;-79
2021/10/05 05:33:42;;;;;;;19.73;4.95;;;;;;;11.17;100.00;101297.03;4796157;29;20055;-80
2021/10/05 05:36:09;;;;;;;15.52;4.85;;;;;;;11.14;100.00;101292.03;4786166;29;20068;-79
2021/10/05 05:38:35;;;;;;;17.13;4.97;;;;;;;11.08;100.00;101287.41;4796216;29;20041;-78
2021/10/05 05:41:00;;;;;;;24.13;5.10;;;;;;;11.07;100.00;101285.75;4819342;29;20043;-82
2021/10/05 05:43:26;;;;;;;13.88;4.88;;;;;;;11.10;100.00;101289.94;4824469;29;20074;-81
2021/10/05 05:45:51;;;;;;;18.00;4.68;;;;;;;11.05;100.00;101282.41;4824357;29;20035;-80
2021/10/05 05:48:16;;;;;;;15.13;4.65;;;;;;;10.99;100.00;101280.47;4811373;29;20049;-79
2021/10/05 05:50:42;;;;;;;21.05;4.80;;;;;;;11.08;100.00;101290.09;4796613;29;20039;-80
2021/10/05 05:53:08;;;;;;;20.77;4.95;;;;;;;11.12;100.00;101291.38;4807218;29;20031;-80
2021/10/05 05:55:34;;;;;;;18.73;4.72;;;;;;;11.14;100.00;101294.72;4802216;29;20046;-79
2021/10/05 05:58:10;;;;;;;19.27;5.00;;;;;;;11.14;100.00;101294.72;4813392;29;20038;-80
2021/10/05 06:00:36;;;;;;;21.08;4.80;;;;;;;11.18;100.00;101296.00;4815885;29;20027;-79
2021/10/05 06:03:02;;;;;;;16.05;4.82;;;;;;;11.08;100.00;101265.88;4799686;29;20530;-79
2021/10/05 06:05:27;;;;;;;14.23;4.38;;;;;;;11.21;100.00;101290.25;4819654;29;20042;-80
2021/10/05 06:07:53;;;;;;;12.95;4.70;;;;;;;11.25;100.00;101293.38;4804687;29;20446;-78
2021/10/05 06:10:18;;;;;;;18.20;4.53;;;;;;;11.27;100.00;101300.25;4803065;29;20083;-78
2021/10/05 06:12:43;;;;;;;19.15;5.43;;;;;;;11.31;100.00;101303.41;4779896;29;20366;-79
2021/10/05 06:15:12;;;;;;;17.45;5.05;;;;;;;11.31;100.00;101302.56;4803169;29;20068;-80
2021/10/05 06:17:42;;;;;;;15.38;4.90;;;;;;;11.32;100.00;101294.28;4809246;29;20027;-81
2021/10/05 06:20:13;;;;;;;19.65;5.45;;;;;;;11.31;100.00;101291.81;4809974;29;20062;-79
2021/10/05 06:22:39;;;;;;;19.65;5.57;;;;;;;11.31;100.00;101295.31;4800821;29;20122;-83
2021/10/05 06:25:11;;;;;;;19.73;6.03;;;;;;;11.24;100.00;101284.47;4798155;29;20574;-80
2021/10/05 06:27:37;;;;;;;17.08;5.55;;;;;;;11.25;100.00;101283.44;4816858;29;20030;-81
2021/10/05 06:30:03;;;;;;;22.55;5.60;;;;;;;11.19;100.00;101284.22;4783517;29;20023;-81
2021/10/05 06:32:30;;;;;;;20.85;6.03;;;;;;;11.20;100.00;101282.38;4799637;29;20059;-80
2021/10/05 06:34:55;;;;;;;17.15;5.25;;;;;;;11.22;100.00;101283.00;4800372;29;20030;-80
2021/10/05 06:37:21;;;;;;;20.25;5.80;;;;;;;11.12;100.00;101267.16;4800305;29;20042;-81
2021/10/05 06:39:47;;;;;;;17.55;5.97;;;;;;;11.19;100.00;101278.00;4770102;29;20042;-80
2021/10/05 06:42:14;;;;;;;17.70;5.60;;;;;;;11.14;100.00;101281.28;4817677;29;20072;-81
2021/10/05 06:44:40;;;;;;;13.60;5.80;;;;;;;11.15;100.00;101293.69;4813729;29;20358;-80
2021/10/05 06:47:06;;;;;;;18.77;6.90;;;;;;;11.18;100.00;101297.88;4792106;29;20034;-80
2021/10/05 06:49:31;;;;;;;21.60;6.75;;;;;;;11.18;100.00;101290.63;4812666;29;20027;-80
2021/10/05 06:51:57;;;;;;;18.60;7.15;;;;;;;11.21;100.00;101292.94;4817012;29;20030;-80
2021/10/05 06:54:22;;;;;;;14.57;6.70;;;;;;;11.29;100.00;101300.91;4815667;29;20054;-80
2021/10/05 06:56:48;;;;;;;16.92;6.05;;;;;;;11.34;100.00;101296.81;4791952;29;20365;-80
2021/10/05 06:59:14;;;;;;;19.83;7.88;;;;;;;11.39;100.00;101297.91;4812464;29;20027;-80
2021/10/05 07:01:40;;;;;;;17.58;9.20;;;;;;;11.38;100.00;101290.00;4814942;29;20373;-79
2021/10/05 07:04:05;;;;;;;21.92;9.05;;;;;;;11.47;100.00;101295.06;4811945;29;20130;-80
2021/10/05 07:06:30;;;;;;;18.90;9.07;;;;;;;11.49;100.00;101284.94;4800410;29;20035;-80
2021/10/05 07:08:57;;;;;;;18.20;9.77;;;;;;;11.52;100.00;101287.25;4810818;29;20416;-80
2021/10/05 07:11:23;;;;;;;22.35;9.60;;;;;;;11.51;100.00;101292.81;4811424;29;20042;-80
2021/10/05 07:13:48;;;;;;;17.92;9.65;;;;;;;11.46;100.00;101289.88;4795552;29;20054;-81
2021/10/05 07:16:14;;;;;;;16.52;9.30;;;;;;;11.48;100.00;101309.38;4813480;29;20049;-81
2021/10/05 07:18:41;;;;;;;18.70;8.98;;;;;;;11.50;100.00;101316.25;4810057;29;20035;-81
2021/10/05 07:21:06;;;;;;;15.48;8.93;;;;;;;11.55;100.00;101318.34;4798520;29;20121;-80
2021/10/05 07:23:32;;;;;;;17.98;9.25;;;;;;;11.58;100.00;101315.28;4794622;29;20035;-80
2021/10/05 07:25:57;;;;;;;16.75;8.85;;;;;;;11.66;100.00;101319.72;4817849;29;20453;-81
2021/10/05 07:28:23;;;;;;;21.77;9.80;;;;;;;11.80;100.00;101324.19;4815441;29;20062;-80
2021/10/05 07:30:48;;;;;;;17.15;8.85;;;;;;;11.88;100.00;101328.63;4785812;29;20053;-80
2021/10/05 07:33:15;;;;;;;17.73;8.60;;;;;;;11.95;100.00;101321.41;4799189;29;20058;-81
2021/10/05 07:35:40;;;;;;;16.90;8.13;;;;;;;12.06;100.00;101333.56;4785295;29;20031;-81
2021/10/05 07:38:06;;;;;;;15.85;7.60;;;;;;;11.91;100.00;101302.09;4800578;29;20035;-81
2021/10/05 07:40:33;;;;;;;13.75;7.28;;;;;;;12.13;100.00;101315.56;4817275;29;20049;-81
2021/10/05 07:42:59;;;;;;;13.57;7.28;;;;;;;12.16;100.00;101317.88;4803425;29;20038;-80
2021/10/05 07:45:26;;;;;;;13.23;7.18;;;;;;;12.12;100.00;101303.94;4800535;29;20039;-80
2021/10/05 07:47:52;;;;;;;14.90;6.63;;;;;;;12.17;100.00;101323.03;4822083;29;20023;-81
2021/10/05 07:50:18;;;;;;;13.35;5.93;;;;;;;12.06;100.00;101312.81;4800672;29;20031;-81
2021/10/05 07:52:44;;;;;;;16.30;6.70;;;;;;;12.11;100.00;101328.41;4799603;29;20081;-81
2021/10/05 07:55:10;;;;;;;18.63;6.60;;;;;;;12.01;100.00;101317.13;4814573;29;20102;-81
2021/10/05 07:57:36;;;;;;;12.57;6.35;;;;;;;11.99;100.00;101314.63;4802726;29;20034;-80
2021/10/05 08:00:03;;;;;;;12.23;6.28;;;;;;;12.04;100.00;101331.03;4794048;29;20104;-80
2021/10/05 08:02:29;;;;;;;14.50;6.47;;;;;;;11.97;100.00;101327.47;4802581;29;20031;-80
2021/10/05 08:04:56;;;;;;;10.15;5.70;;;;;;;11.93;100.00;101326.19;4808521;29;20047;-80
2021/10/05 08:07:26;;;;;;;13.57;5.50;;;;;;;11.91;100.00;101325.53;4798263;29;20026;-80
2021/10/05 08:09:53;;;;;;;13.98;5.85;;;;;;;11.86;100.00;101322.63;4813259;29;20026;-80
2021/10/05 08:12:19;;;;;;;12.70;5.90;;;;;;;11.85;100.00;101321.75;4816716;29;20030;-81
2021/10/05 08:14:46;;;;;;;17.00;5.22;;;;;;;11.96;100.00;101323.94;4807699;29;20065;-81
2021/10/05 08:17:11;;;;;;;14.30;5.40;;;;;;;11.88;100.00;101299.78;4811446;29;20039;-81
2021/10/05 08:19:38;;;;;;;13.45;5.00;;;;;;;12.01;100.00;101311.72;4817857;29;20046;-80
2021/10/05 08:22:04;;;;;;;12.55;4.85;;;;;;;12.09;100.00;101316.97;4809957;29;20019;-81
2021/10/05 08:24:30;;;;;;;11.57;4.70;;;;;;;12.15;100.00;101311.63;4816080;29;20052;-81
2021/10/05 08:26:55;;;;;;;11.48;4.50;;;;;;;12.21;100.00;101305.44;4825583;29;20035;-81
2021/10/05 08:29:21;;;;;;;12.18;4.38;;;;;;;12.20;100.00;101292.97;4807167;29;20087;-81
2021/10/05 08:31:48;;;;;;;12.95;4.88;;;;;;;12.38;100.00;101315.91;4836888;29;20042;-80
2021/10/05 08:34:13;;;;;;;13.70;4.35;;;;;;;12.39;100.00;101304.09;4829936;29;20042;-81
2021/10/05 08:36:39;;;;;;;11.57;4.18;;;;;;;12.53;100.00;101311.22;4814743;29;20046;-81
2021/10/05 08:39:05;;;;;;;15.10;4.40;;;;;;;12.49;100.00;101293.78;4825394;29;20037;-81
2021/10/05 08:41:30;;;;;;;10.10;3.90;;;;;;;12.60;100.00;101305.88;4840685;29;20045;-81
2021/10/05 08:43:58;;;;;;;9.55;3.20;;;;;;;12.70;100.00;101315.25;4825963;29;20042;-81
2021/10/05 08:46:26;;;;;;;7.63;3.60;;;;;;;12.74;100.00;101312.97;4826174;29;20049;-81
2021/10/05 08:48:52;;;;;;;6.07;2.92;;;;;;;12.84;100.00;101309.91;4811726;29;20031;-80
2021/10/05 08:51:17;;;;;;;12.45;3.13;;;;;;;12.88;100.00;101305.75;4843218;29;20057;-81
2021/10/05 08:53:42;;;;;;;7.70;2.85;;;;;;;12.85;100.00;101284.59;4799864;29;20027;-81
2021/10/05 08:56:09;;;;;;;7.93;3.00;;;;;;;12.97;100.00;101298.31;4825102;29;20035;-80
2021/10/05 08:58:36;;;;;;;6.75;2.85;;;;;;;13.02;100.00;101302.09;4794052;29;20038;-81
2021/10/05 09:01:11;;;;;;;10.57;2.80;;;;;;;13.02;100.00;101293.16;4809366;29;20047;-81
2021/10/05 09:03:38;;;;;;;10.57;3.00;;;;;;;12.83;100.00;101284.78;4813843;29;20038;-81
2021/10/05 09:06:14;;;;;;;8.65;2.78;;;;;;;12.98;100.00;101303.53;4827938;29;20051;-81
2021/10/05 09:08:41;;;;;;;14.98;2.85;;;;;;;13.03;100.00;101292.94;4801730;29;20043;-81
2021/10/05 09:11:09;;;;;;;8.40;2.72;;;;;;;12.97;100.00;101274.00;4810550;29;20035;-81
2021/10/05 09:13:40;;;;;;;9.07;3.10;;;;;;;13.14;100.00;101289.66;4807859;29;20056;-81
2021/10/05 09:16:27;;;;;;;11.90;2.80;;;;;;;13.22;100.00;101283.22;4826069;29;20480;-80
2021/10/05 09:18:59;;;;;;;9.07;2.70;;;;;;;13.18;100.00;101265.78;4821383;29;20039;-81
2021/10/05 09:21:28;;;;;;;8.38;2.58;;;;;;;13.40;100.00;101288.88;4823497;29;20046;-81
2021/10/05 09:23:57;;;;;;;10.75;2.50;;;;;;;13.49;100.00;101277.91;4822426;29;20096;-81
2021/10/05 09:26:40;;;;;;;14.95;3.42;;;;;;;13.49;100.00;101281.44;4802264;29;20034;-82
2021/10/05 09:29:14;;;;;;;8.63;2.38;;;;;;;13.51;100.00;101265.84;4821166;29;20024;-81
2021/10/05 09:31:58;;;;;;;10.35;2.60;;;;;;;13.65;100.00;101274.78;4810072;29;20046;-81
2021/10/05 09:34:44;;;;;;;7.45;2.30;;;;;;;13.71;100.00;101279.38;4825221;29;20031;-80
2021/10/05 09:37:17;;;;;;;9.02;2.50;;;;;;;13.78;100.00;101276.66;4825654;29;20410;-81
2021/10/05 09:39:57;;;;;;;6.65;2.20;;;;;;;13.78;100.00;101272.09;4810798;29;20053;-80
2021/10/05 09:42:28;;;;;;;8.05;2.00;;;;;;;13.81;99.89;101268.97;4826989;29;20074;-81
2021/10/05 09:45:12;;;;;;;7.32;1.70;;;;;;;13.86;99.31;101274.56;4811260;29;20027;-82
2021/10/05 09:47:48;;;;;;;11.57;1.80;;;;;;;13.90;98.71;101264.16;4810921;29;20050;-81
2021/10/05 09:50:24;;;;;;;7.78;2.10;;;;;;;14.01;98.62;101257.28;4827561;29;20030;-81
2021/10/05 09:52:53;;;;;;;6.57;2.08;;;;;;;14.16;98.09;101260.56;4811843;29;20046;-81
2021/10/05 09:55:24;;;;;;;7.60;2.20;;;;;;;14.20;97.51;101267.22;4827490;29;20035;-81
2021/10/05 09:57:51;;;;;;;5.35;1.83;;;;;;;14.10;97.46;101253.28;4826988;29;20041;-82
2021/10/05 10:00:19;;;;;;;10.23;2.28;;;;;;;14.16;97.56;101259.75;4812212;29;20041;-81
2021/10/05 10:02:45;;;;;;;6.30;1.80;;;;;;;14.09;97.16;101251.63;4819089;29;20039;-81
2021/10/05 10:05:16;;;;;;;4.75;1.83;;;;;;;14.16;96.82;101248.91;4802670;29;20053;-81
2021/10/05 10:07:44;;;;;;;8.18;1.73;;;;;;;14.18;96.08;101244.13;4806785;29;20053;-82
2021/10/05 10:10:13;;;;;;;6.30;1.77;;;;;;;14.20;95.88;101239.31;4829881;29;20057;-80
2021/10/05 10:12:45;;;;;;;6.22;1.90;;;;;;;14.35;95.63;101253.44;4827219;29;20030;-81
2021/10/05 10:15:11;;;;;;;5.22;1.80;;;;;;;14.31;94.79;101246.81;4815870;29;20022;-82
2021/10/05 10:17:38;;;;;;;7.47;1.90;;;;;;;14.32;94.62;101243.03;4828974;29;20030;-82
2021/10/05 10:20:05;;;;;;;5.82;1.42;;;;;;;14.42;94.19;101243.44;4825599;29;20532;-81
2021/10/05 10:22:41;;;;;;;6.78;1.80;;;;;;;14.37;93.84;101242.41;4811838;29;20035;-81
2021/10/05 10:25:17;;;;;;;9.68;1.65;;;;;;;14.23;93.40;101222.66;4811682;29;20038;-81
2021/10/05 10:27:45;;;;;;;5.38;1.77;;;;;;;14.15;93.30;101226.44;4823163;29;20109;-82
2021/10/05 10:30:11;;;;;;;5.88;1.50;;;;;;;14.09;93.34;101222.69;4814212;29;20059;-82
2021/10/05 10:32:50;;;;;;;3.70;1.65;;;;;;;14.07;93.29;101213.97;4799479;29;20055;-81
2021/10/05 10:35:16;;;;;;;4.60;1.52;;;;;;;14.20;93.03;101223.09;4811892;29;20018;-82
2021/10/05 10:37:49;;;;;;;4.88;1.60;;;;;;;14.23;92.63;101217.25;4814211;29;20454;-82
2021/10/05 10:40:16;;;;;;;6.38;1.70;;;;;;;14.32;92.81;101216.81;4810458;29;20045;-82
2021/10/05 10:42:42;;;;;;;4.40;1.50;;;;;;;14.33;92.61;101212.22;4816964;29;20019;-81
2021/10/05 10:45:12;;;;;;;5.90;1.60;;;;;;;14.34;91.97;101214.72;4810921;29;20076;-82
2021/10/05 10:47:39;;;;;;;7.55;1.77;;;;;;;14.35;92.07;101212.84;4827872;29;20015;-82
2021/10/05 10:50:06;;;;;;;3.97;1.55;;;;;;;14.34;92.01;101206.59;4829206;29;20127;-82
2021/10/05 10:52:37;;;;;;;4.07;1.58;;;;;;;14.34;91.73;101211.19;4815220;29;20039;-81
2021/10/05 10:55:05;;;;;;;6.03;1.70;;;;;;;14.24;92.11;101181.03;4838808;29;20035;-82
2021/10/05 10:57:37;;;;;;;7.70;2.10;;;;;;;14.36;92.53;101203.66;4819279;29;20039;-82
2021/10/05 11:00:24;;;;;;;4.90;1.70;;;;;;;14.37;92.08;101207.19;4830246;29;20041;-81
2021/10/05 11:02:53;;;;;;;5.25;1.73;;;;;;;14.38;92.41;101185.34;4827776;29;20035;-82
2021/10/05 11:05:23;;;;;;;6.95;1.80;;;;;;;14.48;92.33;101196.53;4829298;29;20103;-81
2021/10/05 11:07:55;;;;;;;5.28;1.60;;;;;;;14.34;91.79;101170.59;4797929;29;20039;-82
2021/10/05 11:10:33;;;;;;;3.95;1.60;;;;;;;14.50;92.43;101196.31;4826699;29;20048;-81
2021/10/05 11:13:01;;;;;;;9.30;1.70;;;;;;;14.57;91.63;101198.00;4816585;29;20035;-81
2021/10/05 11:15:48;;;;;;;5.18;1.90;;;;;;;14.59;91.67;101200.47;4818811;29;20091;-82
2021/10/05 11:18:16;;;;;;;3.58;1.33;;;;;;;14.39;91.38;101154.50;4798990;29;20030;-82
2021/10/05 11:20:47;;;;;;;6.35;1.83;;;;;;;14.72;91.12;101194.16;4830278;29;20027;-82
2021/10/05 11:23:14;;;;;;;4.30;1.67;;;;;;;14.78;91.13;101188.72;4814850;29;20011;-82
2021/10/05 11:25:51;;;;;;;6.07;1.60;;;;;;;14.88;91.37;101190.94;4813343;29;20014;-82
2021/10/05 11:28:20;;;;;;;8.20;1.70;;;;;;;14.88;91.09;101182.81;4795886;29;20012;-82
2021/10/05 11:31:00;;;;;;;7.63;1.70;;;;;;;14.88;89.94;101182.81;4812190;29;20025;-83
2021/10/05 11:33:30;;;;;;;5.15;1.45;;;;;;;15.02;90.52;101181.66;4811121;29;20035;-81
2021/10/05 11:35:58;;;;;;;4.97;1.70;;;;;;;14.72;90.29;101105.59;4794515;30;20015;-82
2021/10/05 11:38:35;;;;;;;3.65;1.40;;;;;;;15.15;90.78;101179.91;4810878;29;20024;-81
2021/10/05 11:41:01;;;;;;;4.20;1.70;;;;;;;15.19;90.61;101173.81;4811225;29;20052;-82
2021/10/05 11:43:43;;;;;;;7.22;1.60;;;;;;;15.25;90.55;101166.69;4826287;29;20023;-82
2021/10/05 11:46:19;;;;;;;9.15;1.60;;;;;;;15.37;90.70;101162.22;4826350;29;20025;-82
2021/10/05 11:48:50;;;;;;;5.55;1.65;;;;;;;15.40;89.86;101164.50;4807623;29;20054;-82
2021/10/05 11:51:17;;;;;;;3.75;1.40;;;;;;;15.41;89.59;101168.84;4826642;29;20038;-83
2021/10/05 11:53:44;;;;;;;8.57;1.40;;;;;;;15.37;89.41;101148.66;4824825;29;20078;-82
2021/10/05 11:56:16;;;;;;;6.72;1.50;;;;;;;15.46;89.27;101160.03;4826165;29;20022;-83
2021/10/05 11:58:50;;;;;;;5.75;1.33;;;;;;;15.42;88.78;101139.84;4799006;29;20049;-82
2021/10/05 12:01:24;;;;;;;11.38;1.52;;;;;;;15.49;89.25;101141.44;4829052;29;20393;-82
2021/10/05 12:03:53;;;;;;;7.20;1.30;;;;;;;15.44;88.24;101130.44;4829722;29;20015;-82
2021/10/05 12:06:29;;;;;;;5.72;1.50;;;;;;;15.50;88.66;101134.97;4829888;29;20046;-82
2021/10/05 12:08:55;;;;;;;4.80;1.42;;;;;;;15.58;86.93;101143.88;4829897;29;20018;-82
2021/10/05 12:11:21;;;;;;;4.20;1.20;;;;;;;15.54;86.80;101132.66;4833270;29;20039;-82
2021/10/05 12:13:46;;;;;;;4.05;1.33;;;;;;;15.62;86.66;101140.47;4833439;29;20042;-82
2021/10/05 12:16:18;;;;;;;5.00;1.38;;;;;;;15.65;85.84;101137.31;4833380;29;20035;-83
2021/10/05 12:18:43;;;;;;;4.78;1.30;;;;;;;15.45;85.23;101118.53;4833774;29;20049;-82
2021/10/05 12:21:12;;;;;;;3.80;1.30;;;;;;;15.58;85.09;101127.59;4833111;29;20466;-82
2021/10/05 12:23:58;;;;;;;7.10;1.30;;;;;;;15.60;84.74;101125.50;4817852;29;20019;-83
2021/10/05 12:26:23;;;;;;;5.60;1.25;;;;;;;15.61;85.20;101116.31;4832445;29;20011;-82
2021/10/05 12:29:10;;;;;;;4.05;1.40;;;;;;;15.67;85.31;101127.13;4839413;29;20079;-83
2021/10/05 12:31:36;;;;;;;4.35;1.40;;;;;;;15.58;85.36;101117.56;4813917;29;20106;-79
2021/10/05 12:34:07;;;;;;;5.43;1.55;;;;;;;15.56;84.70;101116.13;4829824;29;20034;-82
2021/10/05 12:36:35;;;;;;;3.67;1.45;;;;;;;15.54;84.96;101121.78;4832939;29;20030;-83
2021/10/05 12:39:09;;;;;;;5.15;1.30;;;;;;;15.56;85.22;101124.28;4838398;29;20086;-82
2021/10/05 12:41:35;;;;;;;3.17;1.52;;;;;;;15.52;85.15;101126.59;4838155;29;20046;-83
2021/10/05 12:44:01;;;;;;;6.53;1.73;;;;;;;15.51;84.84;101123.06;4821574;29;20037;-83
2021/10/05 12:46:30;;;;;;;5.93;1.40;;;;;;;15.40;84.62;101115.69;4824236;29;20050;-83
2021/10/05 12:48:58;;;;;;;6.10;1.60;;;;;;;15.38;85.06;101106.09;4832667;29;20007;-83
2021/10/05 12:51:28;;;;;;;5.80;1.48;;;;;;;15.41;85.29;101109.19;4816819;29;20022;-83